Time;durP1;ratioP1;P1;durP2;ratioP2;P2;SDS_P1;SDS_P2;PMS_P1;PMS_P2;Temp;Humidity;BMP_temperature;BMP_pressure;BME280_temperature;BME280_humidity;BME280_pressure;Samples;Min_cycle;Max_cycle;Signal;HPM_P1;HPM_P2
2022/08/20 00:00:47;;;;;;;11.27;5.85;;;;;;;19.00;100.00;101456.88;5011080;28;20075;-68
2022/08/20 00:03:19;;;;;;;8.38;5.45;;;;;;;18.94;100.00;101447.81;5011114;28;20095;-69
2022/08/20 00:05:50;;;;;;;13.27;6.32;;;;;;;18.97;100.00;101451.94;5011432;28;20036;-69
2022/08/20 00:08:16;;;;;;;13.30;6.85;;;;;;;18.95;100.00;101448.66;5010770;28;20026;-66
2022/08/20 00:10:44;;;;;;;12.57;7.50;;;;;;;18.93;100.00;101448.88;5010178;28;20036;-66
2022/08/20 00:13:13;;;;;;;13.75;7.43;;;;;;;18.96;100.00;101455.69;5010636;28;20033;-65
2022/08/20 00:15:39;;;;;;;13.75;6.38;;;;;;;18.94;100.00;101453.25;5010864;28;20100;-65
2022/08/20 00:18:05;;;;;;;13.20;6.40;;;;;;;18.95;100.00;101445.94;5010870;28;20061;-66
2022/08/20 00:20:35;;;;;;;13.80;7.60;;;;;;;18.95;100.00;101451.34;5010777;28;20985;-66
2022/08/20 00:23:01;;;;;;;15.70;7.28;;;;;;;18.95;100.00;101452.16;5010854;28;20037;-66
2022/08/20 00:25:27;;;;;;;13.85;6.57;;;;;;;18.93;100.00;101451.56;5010742;28;20029;-66
2022/08/20 00:27:54;;;;;;;21.67;9.60;;;;;;;18.96;100.00;101453.78;5010514;28;20033;-65
2022/08/20 00:30:20;;;;;;;14.57;7.60;;;;;;;18.97;100.00;101458.16;5010479;28;20034;-65
2022/08/20 00:32:49;;;;;;;14.93;8.98;;;;;;;18.97;100.00;101452.75;5010611;28;20030;-65
2022/08/20 00:35:17;;;;;;;12.90;6.85;;;;;;;18.99;100.00;101460.59;5010480;28;20147;-66
2022/08/20 00:37:42;;;;;;;17.08;8.02;;;;;;;19.00;100.00;101448.75;5009920;28;20053;-66
2022/08/20 00:40:10;;;;;;;15.68;7.90;;;;;;;19.01;100.00;101453.09;5010563;28;20034;-66
2022/08/20 00:42:43;;;;;;;15.38;8.40;;;;;;;19.01;100.00;101453.09;5009985;28;20384;-66
2022/08/20 00:45:09;;;;;;;17.40;9.13;;;;;;;19.02;100.00;101454.72;5010534;28;20026;-66
2022/08/20 00:47:35;;;;;;;14.23;8.57;;;;;;;19.02;100.00;101455.56;5009981;28;20481;-66
2022/08/20 00:50:05;;;;;;;16.80;8.63;;;;;;;19.00;100.00;101444.16;5010362;28;20044;-66
2022/08/20 00:52:30;;;;;;;15.85;8.55;;;;;;;18.97;100.00;101449.22;5010191;28;20076;-66
2022/08/20 00:54:59;;;;;;;15.38;8.73;;;;;;;18.97;100.00;101443.81;5010135;28;20053;-65
2022/08/20 00:57:33;;;;;;;15.00;8.18;;;;;;;18.97;100.00;101435.72;5010194;28;20034;-65
2022/08/20 01:00:01;;;;;;;15.60;7.78;;;;;;;18.97;100.00;101441.13;5010256;28;20028;-66
2022/08/20 01:02:29;;;;;;;15.00;8.50;;;;;;;18.97;100.00;101449.22;5010153;28;20120;-66
2022/08/20 01:04:56;;;;;;;14.07;7.53;;;;;;;18.97;100.00;101450.06;5010008;28;20087;-65
2022/08/20 01:07:31;;;;;;;17.17;9.15;;;;;;;18.97;100.00;101446.53;5010005;28;20036;-66
2022/08/20 01:09:58;;;;;;;19.77;8.90;;;;;;;18.98;100.00;101448.16;5009988;28;20022;-66
2022/08/20 01:12:24;;;;;;;17.83;9.75;;;;;;;18.95;100.00;101444.06;5009844;28;20026;-66
2022/08/20 01:14:50;;;;;;;16.88;8.75;;;;;;;18.99;100.00;101447.09;5009918;28;20041;-66
2022/08/20 01:17:21;;;;;;;15.90;9.50;;;;;;;19.01;100.00;101450.38;5009892;28;20038;-65
2022/08/20 01:19:54;;;;;;;15.52;8.80;;;;;;;18.99;100.00;101447.94;5009794;28;20025;-66
2022/08/20 01:25:45;;;;;;;16.45;9.18;;;;;;;18.95;100.00;101444.06;4994669;28;20125;-66
2022/08/20 01:28:13;;;;;;;16.75;8.30;;;;;;;18.93;100.00;101450.75;5009654;28;20539;-66
2022/08/20 01:30:40;;;;;;;16.08;8.35;;;;;;;18.92;100.00;101441.84;5009690;28;20034;-66
2022/08/20 01:33:05;;;;;;;15.23;7.70;;;;;;;18.93;100.00;101446.16;5009769;28;20040;-66
2022/08/20 01:35:35;;;;;;;13.90;7.78;;;;;;;18.94;100.00;101444.28;5009614;28;20394;-66
2022/08/20 01:38:01;;;;;;;15.60;9.38;;;;;;;18.96;100.00;101450.28;5009146;28;20054;-66
2022/08/20 01:40:43;;;;;;;15.57;7.80;;;;;;;18.96;100.00;101452.97;5009567;28;20088;-66
2022/08/20 01:43:09;;;;;;;16.05;9.07;;;;;;;18.97;100.00;101454.66;5009676;28;20105;-66
2022/08/20 01:45:35;;;;;;;13.40;7.28;;;;;;;18.97;100.00;101458.16;5009587;28;20053;-65
2022/08/20 01:48:01;;;;;;;16.17;7.78;;;;;;;18.90;100.00;101445.84;5009628;28;20030;-65
2022/08/20 01:50:29;;;;;;;16.85;7.43;;;;;;;18.87;100.00;101446.31;4991886;28;20038;-65
2022/08/20 01:53:11;;;;;;;17.27;8.25;;;;;;;18.80;100.00;101449.94;5009453;28;20022;-65
2022/08/20 01:55:37;;;;;;;17.25;10.07;;;;;;;18.74;100.00;101452.75;5009492;28;20030;-65
2022/08/20 01:58:02;;;;;;;17.20;8.38;;;;;;;18.67;100.00;101444.75;5009539;28;20029;-65
2022/08/20 02:00:29;;;;;;;16.75;9.07;;;;;;;18.70;100.00;101452.38;5009473;28;20469;-65
2022/08/20 02:02:54;;;;;;;18.80;9.82;;;;;;;18.72;100.00;101438.66;5009336;28;20041;-65
2022/08/20 02:05:20;;;;;;;17.45;8.70;;;;;;;18.72;100.00;101447.56;5009323;28;20034;-65
2022/08/20 02:07:46;;;;;;;17.83;9.18;;;;;;;18.72;100.00;101438.66;5009261;28;20146;-65
2022/08/20 02:10:14;;;;;;;16.48;8.98;;;;;;;18.71;100.00;101445.13;5009378;28;20124;-65
2022/08/20 02:12:39;;;;;;;15.13;7.75;;;;;;;18.65;100.00;101441.47;5009307;28;20022;-65
2022/08/20 02:15:09;;;;;;;15.80;8.25;;;;;;;18.68;100.00;101449.13;5009434;28;20037;-65
2022/08/20 02:17:35;;;;;;;13.40;7.50;;;;;;;18.61;100.00;101434.91;5009345;28;20026;-65
2022/08/20 02:20:09;;;;;;;16.75;9.88;;;;;;;18.67;100.00;101452.84;5009248;28;20046;-65
2022/08/20 02:22:43;;;;;;;16.13;8.38;;;;;;;18.65;100.00;101449.56;5009460;28;20025;-65
2022/08/20 02:25:10;;;;;;;18.80;9.45;;;;;;;18.69;100.00;101455.34;5009140;28;20026;-65
2022/08/20 02:27:38;;;;;;;17.52;8.73;;;;;;;18.69;100.00;101455.34;5009306;28;20030;-65
2022/08/20 02:30:09;;;;;;;20.20;9.98;;;;;;;18.69;100.00;101456.16;5009221;28;20041;-65
2022/08/20 02:32:36;;;;;;;21.30;10.98;;;;;;;18.70;100.00;101449.69;5010091;28;20038;-65
2022/08/20 02:35:04;;;;;;;17.92;9.68;;;;;;;18.74;100.00;101447.34;5012051;28;20522;-66
2022/08/20 02:37:30;;;;;;;17.85;10.13;;;;;;;18.75;100.00;101454.41;5011639;28;20133;-65
2022/08/20 02:39:56;;;;;;;17.67;10.30;;;;;;;18.76;100.00;101456.91;5011891;28;20481;-65
2022/08/20 02:42:21;;;;;;;16.92;10.45;;;;;;;18.78;100.00;101453.94;5012684;28;20030;-65
2022/08/20 02:44:46;;;;;;;19.77;10.38;;;;;;;18.78;100.00;101457.47;5012679;28;20117;-66
2022/08/20 02:47:12;;;;;;;18.33;10.15;;;;;;;18.82;100.00;101457.81;4995015;28;20061;-66
2022/08/20 02:49:37;;;;;;;17.58;10.77;;;;;;;18.81;100.00;101451.59;5012416;28;20188;-65
2022/08/20 02:52:03;;;;;;;19.95;11.20;;;;;;;18.82;100.00;101453.25;5012542;28;20157;-65
2022/08/20 02:54:28;;;;;;;17.63;9.48;;;;;;;18.81;100.00;101451.59;5012491;28;20477;-65
2022/08/20 02:56:54;;;;;;;22.02;11.20;;;;;;;18.81;100.00;101458.88;5012414;28;20052;-65
2022/08/20 02:59:19;;;;;;;18.92;11.45;;;;;;;18.81;100.00;101465.13;5012273;28;20373;-66
2022/08/20 03:01:45;;;;;;;21.58;12.25;;;;;;;18.81;100.00;101462.41;5012314;28;20377;-66
2022/08/20 03:04:10;;;;;;;20.02;12.65;;;;;;;18.81;100.00;101459.72;5012185;28;20026;-65
2022/08/20 03:06:36;;;;;;;19.10;11.85;;;;;;;18.86;100.00;101458.97;5012203;28;20033;-65
2022/08/20 03:09:04;;;;;;;25.30;13.25;;;;;;;18.84;100.00;101453.00;5012429;28;20104;-65
2022/08/20 03:11:30;;;;;;;19.85;11.80;;;;;;;18.85;100.00;101453.81;5012109;28;20116;-65
2022/08/20 03:13:55;;;;;;;19.33;10.68;;;;;;;18.86;100.00;101456.28;5012146;28;20404;-65
2022/08/20 03:16:21;;;;;;;23.50;12.82;;;;;;;18.82;100.00;101453.25;5012175;28;20029;-66
2022/08/20 03:18:47;;;;;;;21.27;11.48;;;;;;;18.81;100.00;101456.16;5011959;28;20025;-66
2022/08/20 03:21:12;;;;;;;21.75;12.88;;;;;;;18.81;100.00;101458.88;5012128;28;20109;-65
2022/08/20 03:23:39;;;;;;;21.30;10.95;;;;;;;18.81;100.00;101458.88;5011876;28;20456;-66
2022/08/20 03:26:10;;;;;;;24.30;13.02;;;;;;;18.83;100.00;101457.56;5011970;28;20030;-65
2022/08/20 03:28:36;;;;;;;23.50;12.75;;;;;;;18.82;100.00;101463.22;5011835;28;20030;-66
2022/08/20 03:31:02;;;;;;;21.48;12.63;;;;;;;18.81;100.00;101461.56;5011651;28;20034;-65
2022/08/20 03:33:30;;;;;;;22.90;13.13;;;;;;;18.81;100.00;101461.56;5011751;28;20034;-65
2022/08/20 03:35:56;;;;;;;20.67;11.90;;;;;;;18.79;100.00;101459.13;5010990;28;20038;-65
2022/08/20 03:38:22;;;;;;;22.73;12.52;;;;;;;18.76;100.00;101456.06;5011525;28;20068;-65
2022/08/20 03:40:48;;;;;;;20.10;11.90;;;;;;;18.78;100.00;101464.75;5011147;28;20022;-65
2022/08/20 03:43:14;;;;;;;22.73;12.32;;;;;;;18.73;100.00;101462.75;5011525;28;20030;-66
2022/08/20 03:45:42;;;;;;;19.98;11.10;;;;;;;18.76;100.00;101467.72;5010981;28;20029;-65
2022/08/20 03:48:09;;;;;;;24.95;11.43;;;;;;;18.76;100.00;101465.00;5011619;28;20466;-65
2022/08/20 03:50:35;;;;;;;21.10;12.18;;;;;;;18.77;100.00;101471.22;5011364;28;20719;-65
2022/08/20 03:53:01;;;;;;;20.40;12.13;;;;;;;18.76;100.00;101473.09;4993807;28;20022;-66
2022/08/20 03:55:28;;;;;;;19.33;11.15;;;;;;;18.78;100.00;101470.16;5011332;28;20041;-66
2022/08/20 03:57:57;;;;;;;23.40;12.98;;;;;;;18.74;100.00;101458.97;5011219;28;20121;-65
2022/08/20 04:00:40;;;;;;;22.20;12.02;;;;;;;18.73;100.00;101460.03;5011153;28;20385;-65
2022/08/20 04:03:07;;;;;;;20.77;12.90;;;;;;;18.68;100.00;101457.22;5011240;28;20109;-66
2022/08/20 04:05:33;;;;;;;25.92;13.88;;;;;;;18.63;100.00;101462.50;5010764;28;20041;-65
2022/08/20 04:08:01;;;;;;;27.23;16.50;;;;;;;18.59;100.00;101466.72;5011150;28;20100;-65
2022/08/20 04:10:27;;;;;;;32.90;18.05;;;;;;;18.61;100.00;101472.72;5010615;28;20477;-65
2022/08/20 04:12:52;;;;;;;27.05;17.13;;;;;;;18.59;100.00;101481.06;5010941;28;20033;-65
2022/08/20 04:15:18;;;;;;;27.48;16.75;;;;;;;18.58;100.00;101474.00;5010899;28;20469;-65
2022/08/20 04:17:49;;;;;;;34.28;19.23;;;;;;;18.54;100.00;101470.13;5010904;28;20439;-66
2022/08/20 04:20:17;;;;;;;30.00;18.45;;;;;;;18.55;100.00;101476.38;5010881;28;20029;-65
2022/08/20 04:22:46;;;;;;;28.35;18.83;;;;;;;18.53;100.00;101486.59;5010953;28;20053;-66
2022/08/20 04:25:11;;;;;;;27.98;18.10;;;;;;;18.49;100.00;101490.78;5010896;28;20038;-66
2022/08/20 04:27:37;;;;;;;31.17;18.13;;;;;;;18.47;100.00;101490.19;5010714;28;20468;-65
2022/08/20 04:30:13;;;;;;;36.92;20.65;;;;;;;18.49;100.00;101485.41;5010763;28;20373;-65
2022/08/20 04:32:40;;;;;;;33.58;17.88;;;;;;;18.48;100.00;101487.28;5010535;28;20492;-66
2022/08/20 04:35:07;;;;;;;30.42;17.85;;;;;;;18.45;100.00;101485.06;5010455;28;20608;-65
2022/08/20 04:37:32;;;;;;;33.85;18.65;;;;;;;18.44;100.00;101491.50;5010360;28;20061;-65
2022/08/20 04:42:47;;;;;;;34.33;18.70;;;;;;;18.41;100.00;101500.06;5009985;28;20083;-66
2022/08/20 04:45:12;;;;;;;28.52;17.23;;;;;;;18.38;100.00;101506.75;5010480;28;20029;-65
2022/08/20 04:47:37;;;;;;;34.05;20.65;;;;;;;18.35;100.00;101501.00;5010292;28;20185;-65
2022/08/20 04:50:06;;;;;;;29.58;16.98;;;;;;;18.39;100.00;101511.13;4992581;28;20440;-66
2022/08/20 04:52:31;;;;;;;30.95;19.38;;;;;;;18.41;100.00;101516.28;5009907;28;20393;-65
2022/08/20 04:54:57;;;;;;;33.13;18.90;;;;;;;18.39;100.00;101513.81;5010130;28;20068;-65
2022/08/20 04:57:24;;;;;;;34.63;19.88;;;;;;;18.37;100.00;101515.09;5009456;28;20029;-68
2022/08/20 04:59:51;;;;;;;32.58;19.50;;;;;;;18.36;100.00;101518.84;5010152;28;20041;-68
2022/08/20 05:02:17;;;;;;;40.17;23.80;;;;;;;18.35;100.00;101523.44;5010012;28;20092;-68
2022/08/20 05:04:43;;;;;;;39.05;19.00;;;;;;;18.35;100.00;101522.59;5010251;28;20453;-68
2022/08/20 05:07:13;;;;;;;34.65;20.17;;;;;;;18.32;100.00;101528.47;5010020;28;20076;-68
2022/08/20 05:09:39;;;;;;;37.00;21.90;;;;;;;18.27;100.00;101523.78;5010131;28;20084;-68
2022/08/20 05:12:04;;;;;;;34.70;21.98;;;;;;;18.31;100.00;101534.91;5009909;28;20030;-68
2022/08/20 05:14:30;;;;;;;35.00;20.85;;;;;;;18.31;100.00;101532.22;5009450;28;20038;-68
2022/08/20 05:16:59;;;;;;;33.58;20.23;;;;;;;18.31;100.00;101534.91;5009883;28;20030;-68
2022/08/20 05:19:25;;;;;;;35.83;21.60;;;;;;;18.29;100.00;101540.56;5009621;28;20041;-67
2022/08/20 05:21:52;;;;;;;39.33;22.50;;;;;;;18.26;100.00;101538.34;5009785;28;20555;-67
2022/08/20 05:24:18;;;;;;;40.22;21.65;;;;;;;18.26;100.00;101540.19;5009531;28;20025;-68
2022/08/20 05:26:44;;;;;;;34.28;19.98;;;;;;;18.22;100.00;101541.72;5009744;28;20033;-68
2022/08/20 05:29:09;;;;;;;41.53;19.92;;;;;;;18.18;100.00;101542.19;5009680;28;20049;-68
2022/08/20 05:31:34;;;;;;;33.47;19.48;;;;;;;18.15;100.00;101542.63;5009519;28;20057;-68
2022/08/20 05:34:08;;;;;;;37.42;20.73;;;;;;;18.11;100.00;101544.16;5009507;28;20038;-68
2022/08/20 05:36:34;;;;;;;31.02;19.13;;;;;;;18.11;100.00;101540.63;5009444;28;20477;-68
2022/08/20 05:38:59;;;;;;;33.28;17.73;;;;;;;18.11;100.00;101544.16;5009616;28;20053;-68
2022/08/20 05:41:26;;;;;;;30.10;18.35;;;;;;;18.06;100.00;101544.00;5009582;28;20112;-68
2022/08/20 05:43:51;;;;;;;31.08;19.00;;;;;;;18.03;100.00;101554.47;5009007;28;20116;-68
2022/08/20 05:46:16;;;;;;;37.85;20.58;;;;;;;18.01;100.00;101549.28;5009635;28;20121;-65
2022/08/20 05:48:42;;;;;;;39.05;19.42;;;;;;;18.03;100.00;101549.06;5009448;28;20061;-65
2022/08/20 05:51:07;;;;;;;28.60;17.88;;;;;;;18.03;100.00;101549.88;5009482;28;20045;-65
2022/08/20 05:53:33;;;;;;;37.70;17.70;;;;;;;18.07;100.00;101555.63;5009496;28;20072;-65
2022/08/20 05:56:00;;;;;;;32.67;20.33;;;;;;;18.05;100.00;101552.34;5009450;28;20057;-65
2022/08/20 05:58:28;;;;;;;30.85;18.95;;;;;;;18.00;100.00;101555.75;5009500;28;20444;-65
2022/08/20 06:00:53;;;;;;;32.45;18.73;;;;;;;17.99;100.00;101559.47;5009205;28;20033;-66
2022/08/20 06:06:04;;;;;;;31.85;18.23;;;;;;;17.92;100.00;101562.28;5009816;28;20044;-66
2022/08/20 06:08:30;;;;;;;30.00;18.25;;;;;;;17.89;100.00;101564.59;5012244;28;20033;-65
2022/08/20 06:10:56;;;;;;;33.55;19.63;;;;;;;17.94;100.00;101562.03;4995569;28;20531;-65
2022/08/20 06:13:22;;;;;;;32.75;18.27;;;;;;;17.90;100.00;101553.56;5013016;28;20026;-66
2022/08/20 06:15:48;;;;;;;33.95;19.45;;;;;;;17.93;100.00;101558.50;5012327;28;20060;-66
2022/08/20 06:18:13;;;;;;;30.33;17.60;;;;;;;17.95;100.00;101559.13;5013233;28;20026;-66
2022/08/20 06:20:39;;;;;;;33.65;20.17;;;;;;;17.97;100.00;101561.56;5013199;28;20037;-65
2022/08/20 06:23:05;;;;;;;31.90;21.05;;;;;;;17.93;100.00;101566.59;5012992;28;20061;-66
2022/08/20 06:25:32;;;;;;;31.30;19.48;;;;;;;17.89;100.00;101560.03;5013011;28;20084;-65
2022/08/20 06:27:58;;;;;;;34.67;17.77;;;;;;;17.96;100.00;101570.72;5013151;28;20088;-65
2022/08/20 06:30:24;;;;;;;26.80;18.17;;;;;;;17.97;100.00;101564.28;5012935;28;20041;-65
2022/08/20 06:32:49;;;;;;;38.15;20.15;;;;;;;18.00;100.00;101568.38;5012779;28;20049;-65
2022/08/20 06:35:15;;;;;;;27.40;17.98;;;;;;;18.09;100.00;101558.94;5012778;28;20488;-65
2022/08/20 06:37:41;;;;;;;33.80;19.70;;;;;;;18.18;100.00;101568.34;5012626;28;20099;-65
2022/08/20 06:40:13;;;;;;;33.40;19.88;;;;;;;18.20;100.00;101565.41;5012715;28;20564;-65
2022/08/20 06:42:40;;;;;;;;;;;;;;;18.27;100.00;101568.84;5013060;28;20105;-66
2022/08/20 06:45:06;;;;;;;33.15;19.60;;;;;;;18.23;100.00;101564.97;5012530;28;19977;-66
2022/08/20 06:47:32;;;;;;;34.03;20.38;;;;;;;18.22;100.00;101566.03;5012547;28;20073;-66
2022/08/20 06:49:57;;;;;;;31.80;18.83;;;;;;;18.22;100.00;101568.72;5012593;28;20112;-65
2022/08/20 06:52:23;;;;;;;33.45;21.02;;;;;;;18.19;100.00;101575.41;5012415;28;20121;-66
2022/08/20 06:54:48;;;;;;;30.67;19.77;;;;;;;18.18;100.00;101571.88;5012583;28;20084;-67
2022/08/20 06:57:14;;;;;;;32.97;20.35;;;;;;;18.20;100.00;101570.81;4994872;28;20033;-66
2022/08/20 06:59:40;;;;;;;34.17;19.48;;;;;;;18.24;100.00;101572.03;4994716;28;20602;-69
2022/08/20 07:02:06;;;;;;;33.00;21.42;;;;;;;18.30;100.00;101573.78;5012082;28;20037;-66
2022/08/20 07:04:32;;;;;;;38.92;22.40;;;;;;;18.32;100.00;101577.09;5012370;28;20056;-65
2022/08/20 07:06:58;;;;;;;33.42;20.92;;;;;;;18.35;100.00;101572.03;4994746;28;20389;-65
2022/08/20 07:09:25;;;;;;;31.95;19.40;;;;;;;18.36;100.00;101573.69;5011939;28;20025;-65
2022/08/20 07:11:51;;;;;;;36.53;19.83;;;;;;;18.39;100.00;101580.50;5011787;28;20064;-65
2022/08/20 07:14:17;;;;;;;29.77;18.17;;;;;;;18.40;100.00;101576.75;5011953;28;20058;-66
2022/08/20 07:16:42;;;;;;;29.85;19.85;;;;;;;18.45;100.00;101582.28;5012120;28;20531;-65
2022/08/20 07:19:08;;;;;;;27.65;15.40;;;;;;;18.44;100.00;101591.44;5011041;28;20029;-66
2022/08/20 07:21:34;;;;;;;29.63;16.55;;;;;;;18.43;100.00;101587.09;5011957;28;20100;-66
2022/08/20 07:23:59;;;;;;;28.48;18.02;;;;;;;18.43;100.00;101588.97;5012022;28;20473;-66
2022/08/20 07:26:25;;;;;;;26.15;16.48;;;;;;;18.47;100.00;101592.84;5011730;28;20030;-65
2022/08/20 07:28:50;;;;;;;25.58;15.80;;;;;;;18.52;100.00;101595.69;5011778;28;20038;-65
2022/08/20 07:34:00;;;;;;;32.75;18.05;;;;;;;18.73;100.00;101597.88;5011912;28;20091;-65
2022/08/20 07:36:26;;;;;;;28.17;18.00;;;;;;;18.74;100.00;101601.38;5011492;28;20501;-65
2022/08/20 07:38:53;;;;;;;30.70;16.70;;;;;;;18.78;100.00;101602.56;5011634;28;20488;-65
2022/08/20 07:41:19;;;;;;;23.55;14.32;;;;;;;18.83;100.00;101603.53;5011350;28;20540;-66
2022/08/20 07:43:46;;;;;;;22.98;13.00;;;;;;;18.98;100.00;101604.97;5011297;28;20116;-67
2022/08/20 07:46:13;;;;;;;22.13;13.45;;;;;;;19.07;100.00;101608.94;5011329;28;20494;-65
2022/08/20 07:48:44;;;;;;;28.58;13.75;;;;;;;19.17;100.00;101602.97;5011552;28;20033;-67
2022/08/20 07:51:11;;;;;;;37.17;15.23;;;;;;;19.15;100.00;101622.16;5011372;28;20025;-66
2022/08/20 07:53:38;;;;;;;23.67;13.80;;;;;;;19.17;100.00;101617.31;5011266;28;20045;-66
2022/08/20 07:56:09;;;;;;;24.40;14.02;;;;;;;19.18;100.00;101616.25;5011317;28;20034;-66
2022/08/20 07:58:37;;;;;;;24.58;14.07;;;;;;;19.26;100.00;101621.31;4994471;28;20378;-66
2022/08/20 08:01:04;;;;;;;26.55;14.13;;;;;;;19.27;100.00;101625.66;5011033;28;20022;-66
2022/08/20 08:03:30;;;;;;;25.02;11.80;;;;;;;19.36;100.00;101625.28;5011249;28;20048;-66
2022/08/20 08:05:56;;;;;;;20.08;11.30;;;;;;;19.53;100.00;101620.81;5011169;28;20466;-66
2022/08/20 08:08:27;;;;;;;21.02;12.07;;;;;;;19.74;100.00;101634.81;5011087;28;20041;-66
2022/08/20 08:10:57;;;;;;;21.02;10.07;;;;;;;19.79;97.10;101627.63;5011334;28;20080;-66
2022/08/20 08:13:26;;;;;;;21.63;11.45;;;;;;;19.82;99.14;101620.91;5010646;28;20050;-66
2022/08/20 08:15:56;;;;;;;21.70;11.07;;;;;;;19.90;99.69;101626.75;5011052;28;20030;-66
2022/08/20 08:18:26;;;;;;;18.35;10.20;;;;;;;20.05;96.12;101633.56;5010906;28;20117;-66
2022/08/20 08:20:53;;;;;;;19.45;10.52;;;;;;;20.09;95.62;101632.00;5010783;28;20141;-66
2022/08/20 08:23:22;;;;;;;15.95;9.05;;;;;;;20.18;94.43;101627.03;5010842;28;20518;-66
2022/08/20 08:25:50;;;;;;;20.35;10.43;;;;;;;20.16;95.02;101624.56;5010685;28;20528;-66
2022/08/20 08:28:16;;;;;;;25.52;13.73;;;;;;;20.14;95.47;101627.50;5010698;28;20057;-66
2022/08/20 08:30:42;;;;;;;19.48;11.90;;;;;;;20.21;94.19;101631.97;5010045;28;20117;-66
2022/08/20 08:33:26;;;;;;;19.73;10.05;;;;;;;20.35;93.46;101627.88;5010476;28;20061;-66
2022/08/20 08:35:53;;;;;;;16.65;9.70;;;;;;;20.34;92.08;101628.97;5010771;28;20087;-66
2022/08/20 08:38:20;;;;;;;17.75;10.07;;;;;;;20.33;92.14;101636.28;5010305;28;20062;-66
2022/08/20 08:40:47;;;;;;;19.52;10.07;;;;;;;20.44;92.49;101636.47;5010472;28;20037;-66
2022/08/20 08:43:13;;;;;;;19.67;11.20;;;;;;;20.55;92.36;101641.84;5010419;28;20030;-66
2022/08/20 08:45:44;;;;;;;18.85;9.43;;;;;;;20.66;90.65;101640.13;5010036;28;20037;-66
2022/08/20 08:48:12;;;;;;;20.77;10.98;;;;;;;20.65;90.85;101629.53;5010093;28;20026;-66
2022/08/20 08:50:41;;;;;;;19.42;10.20;;;;;;;20.86;90.09;101647.78;5010521;28;20021;-66
2022/08/20 08:53:14;;;;;;;16.52;9.70;;;;;;;20.92;86.11;101656.84;5010295;28;20065;-66
2022/08/20 08:55:40;;;;;;;19.70;9.98;;;;;;;20.87;86.30;101648.63;5010347;28;20444;-66
2022/08/20 08:58:05;;;;;;;20.80;7.95;;;;;;;20.92;86.77;101643.28;5010151;28;20037;-66
2022/08/20 09:00:30;;;;;;;17.70;8.10;;;;;;;21.00;86.52;101643.66;5009858;28;20030;-66
2022/08/20 09:02:59;;;;;;;14.80;7.50;;;;;;;21.09;84.18;101652.25;5009905;28;20034;-66
2022/08/20 09:05:37;;;;;;;14.52;7.85;;;;;;;21.00;86.87;101659.94;5009931;28;20041;-66
2022/08/20 09:08:05;;;;;;;12.88;6.22;;;;;;;20.74;85.42;101660.59;5009925;28;20033;-66
2022/08/20 09:10:31;;;;;;;14.98;6.93;;;;;;;20.66;86.01;101655.56;5009939;28;20485;-66
2022/08/20 09:12:57;;;;;;;16.75;7.22;;;;;;;20.77;86.79;101654.69;5009832;28;20087;-66
2022/08/20 09:15:22;;;;;;;17.58;7.40;;;;;;;20.91;85.80;101664.16;4992114;28;20034;-66
2022/08/20 09:17:47;;;;;;;10.38;6.90;;;;;;;21.12;85.00;101667.19;5009865;28;20040;-66
2022/08/20 09:20:13;;;;;;;16.40;7.45;;;;;;;21.26;85.18;101663.06;5010022;28;20029;-66
2022/08/20 09:22:39;;;;;;;14.85;6.65;;;;;;;21.20;84.19;101672.22;5009892;28;20026;-66
2022/08/20 09:25:05;;;;;;;12.80;7.40;;;;;;;20.91;83.42;101664.16;5009873;28;20037;-66
2022/08/20 09:27:30;;;;;;;14.02;6.80;;;;;;;20.96;84.73;101666.13;5009707;28;20034;-66
2022/08/20 09:29:56;;;;;;;11.27;6.10;;;;;;;21.10;83.67;101666.63;5009814;28;20108;-66
2022/08/20 09:32:23;;;;;;;16.20;7.00;;;;;;;21.29;82.98;101657.13;5009708;28;20037;-66
2022/08/20 09:34:54;;;;;;;15.93;6.85;;;;;;;21.33;78.91;101657.47;5009844;28;20044;-66
2022/08/20 09:37:20;;;;;;;13.32;6.22;;;;;;;21.39;80.56;101657.31;5009661;28;20077;-66
2022/08/20 09:39:47;;;;;;;11.88;6.32;;;;;;;21.41;78.47;101660.63;5009522;28;20111;-66
2022/08/20 09:42:14;;;;;;;15.43;6.85;;;;;;;21.36;79.27;101655.06;5009211;28;20892;-66
2022/08/20 09:44:40;;;;;;;14.05;6.80;;;;;;;21.43;78.75;101658.47;4991840;28;20420;-66
2022/08/20 09:47:05;;;;;;;12.48;6.22;;;;;;;21.63;78.93;101657.09;5009378;28;20488;-66
2022/08/20 09:49:31;;;;;;;14.02;7.75;;;;;;;21.73;76.90;101656.44;5009292;28;20033;-66
2022/08/20 09:52:00;;;;;;;11.77;6.10;;;;;;;21.73;74.39;101654.53;5009378;28;20037;-66
2022/08/20 09:54:28;;;;;;;12.50;6.20;;;;;;;21.83;76.68;101660.09;5009396;28;20029;-66
2022/08/20 09:56:56;;;;;;;12.00;5.10;;;;;;;21.91;76.66;101658.84;5009406;28;20030;-66
2022/08/20 09:59:22;;;;;;;17.08;6.15;;;;;;;21.88;72.54;101653.91;5009617;28;20033;-67
2022/08/20 10:01:48;;;;;;;9.65;5.18;;;;;;;21.91;72.41;101658.84;5009549;28;21019;-66
2022/08/20 10:04:13;;;;;;;10.70;5.60;;;;;;;21.98;72.69;101655.91;5009409;28;20061;-66
2022/08/20 10:06:40;;;;;;;8.82;4.60;;;;;;;22.08;72.82;101658.75;5009359;28;20041;-66
2022/08/20 10:09:06;;;;;;;10.48;4.05;;;;;;;22.18;72.34;101649.91;5009377;28;20034;-66
2022/08/20 10:11:31;;;;;;;10.98;4.65;;;;;;;22.21;70.72;101661.09;5009308;28;20095;-66
2022/08/20 10:13:57;;;;;;;11.45;5.28;;;;;;;22.20;69.78;101662.19;5009322;28;20072;-67
2022/08/20 10:16:22;;;;;;;9.98;4.05;;;;;;;22.19;70.13;101652.41;5009436;28;20041;-66
2022/08/20 10:18:48;;;;;;;8.10;4.95;;;;;;;22.22;68.75;101656.50;5009255;28;20381;-66
2022/08/20 10:21:14;;;;;;;10.80;4.43;;;;;;;22.27;68.96;101656.56;5008966;28;20026;-67
2022/08/20 10:23:40;;;;;;;13.68;3.72;;;;;;;22.39;68.51;101659.13;5009257;28;20038;-67
2022/08/20 10:26:07;;;;;;;10.38;4.35;;;;;;;22.47;66.04;101656.75;5009420;28;20121;-66
2022/08/20 10:28:33;;;;;;;12.32;4.78;;;;;;;22.49;67.50;101664.66;5009129;28;20117;-67
2022/08/20 10:30:58;;;;;;;9.60;4.03;;;;;;;22.55;66.57;101669.06;5009206;28;20497;-66
2022/08/20 10:33:23;;;;;;;10.55;3.20;;;;;;;22.54;67.11;101662.81;5009162;28;20030;-66
2022/08/20 10:35:48;;;;;;;6.97;3.58;;;;;;;22.62;66.41;101663.44;5008941;28;20586;-67
2022/08/20 10:38:14;;;;;;;8.00;3.95;;;;;;;22.70;65.05;101666.50;5008764;28;20071;-65
2022/08/20 10:40:39;;;;;;;9.73;3.85;;;;;;;22.81;63.80;101659.25;5008896;28;20552;-65
2022/08/20 10:43:05;;;;;;;10.30;4.30;;;;;;;22.90;63.87;101670.50;5008976;28;20029;-66
2022/08/20 10:45:30;;;;;;;8.57;3.47;;;;;;;22.74;64.38;101672.22;5009069;28;20485;-66
2022/08/20 10:47:58;;;;;;;8.40;2.83;;;;;;;22.39;60.42;101667.28;4991400;28;20112;-66
2022/08/20 10:50:24;;;;;;;4.93;2.40;;;;;;;22.13;62.02;101671.59;5008931;28;20033;-65
2022/08/20 10:52:49;;;;;;;4.68;3.00;;;;;;;21.95;64.79;101676.25;5008396;28;20087;-66
2022/08/20 10:55:15;;;;;;;7.20;3.10;;;;;;;21.82;65.82;101672.03;5010862;28;20477;-65
2022/08/20 10:57:41;;;;;;;7.70;2.95;;;;;;;21.79;63.97;101675.22;5012270;28;20075;-68
2022/08/20 11:00:11;;;;;;;8.00;2.88;;;;;;;21.89;65.53;101667.22;5012264;28;20386;-67
2022/08/20 11:02:36;;;;;;;9.85;3.75;;;;;;;22.08;65.75;101669.63;5012465;28;20112;-66
2022/08/20 11:05:04;;;;;;;5.47;2.42;;;;;;;22.29;65.21;101668.81;5012208;28;20715;-66
2022/08/20 11:07:33;;;;;;;9.98;2.97;;;;;;;22.43;60.86;101671.97;5011947;28;20044;-66
2022/08/20 11:09:59;;;;;;;6.70;3.05;;;;;;;22.53;61.20;101666.63;4994544;28;20393;-66
2022/08/20 11:12:25;;;;;;;5.80;2.40;;;;;;;22.43;60.06;101666.53;5012148;28;20033;-66
2022/08/20 11:14:51;;;;;;;6.00;2.83;;;;;;;22.23;60.04;101660.88;5012119;28;20113;-66
2022/08/20 11:17:26;;;;;;;6.30;2.70;;;;;;;22.25;65.04;101666.88;5011955;28;20117;-66
2022/08/20 11:19:52;;;;;;;9.80;2.65;;;;;;;22.24;62.55;101671.50;5011957;28;20036;-67